Time;durP1;ratioP1;P1;durP2;ratioP2;P2;SDS_P1;SDS_P2;PMS_P1;PMS_P2;Temp;Humidity;BMP_temperature;BMP_pressure;BME280_temperature;BME280_humidity;BME280_pressure;Samples;Min_cycle;Max_cycle;Signal;HPM_P1;HPM_P2
2023/03/12 00:00:33;;;;;;;8.00;5.13;;;;;;;1.94;79.15;101004.88;4990887;28;20030;-83
2023/03/12 00:02:59;;;;;;;10.27;4.87;;;;;;;1.96;78.99;101006.41;4953705;28;20045;-83
2023/03/12 00:05:27;;;;;;;10.10;5.10;;;;;;;1.96;79.08;101009.09;4970494;28;21678;-83
2023/03/12 00:07:53;;;;;;;10.17;4.90;;;;;;;1.95;78.45;101006.56;4937191;28;20046;-83
2023/03/12 00:10:19;;;;;;;10.37;5.13;;;;;;;1.93;79.67;100996.03;4944947;28;20297;-91
2023/03/12 00:12:45;;;;;;;11.43;4.80;;;;;;;1.95;78.98;100995.88;4981973;28;20054;-91
2023/03/12 00:15:10;;;;;;;9.33;5.30;;;;;;;1.95;79.60;100995.88;4945140;28;20384;-91
2023/03/12 00:17:36;;;;;;;9.13;5.20;;;;;;;1.94;79.85;100988.84;4990914;28;20046;-91
2023/03/12 00:20:02;;;;;;;12.00;5.17;;;;;;;1.94;80.36;100988.84;4982579;28;20053;-91
2023/03/12 00:22:27;;;;;;;9.70;4.83;;;;;;;1.92;80.83;100985.47;4989865;28;20085;-91
2023/03/12 00:24:55;;;;;;;10.07;4.70;;;;;;;1.94;80.02;100988.84;4982402;28;20325;-91
2023/03/12 00:27:22;;;;;;;13.53;5.67;;;;;;;1.93;79.59;100984.50;4994366;28;20042;-91
2023/03/12 00:29:47;;;;;;;11.47;4.77;;;;;;;1.92;79.68;100972.97;4958832;28;20294;-91
2023/03/12 00:32:13;;;;;;;10.07;5.50;;;;;;;1.92;79.96;100972.13;4959396;28;20297;-91
2023/03/12 00:34:39;;;;;;;11.70;5.30;;;;;;;1.91;80.52;100957.94;4991061;28;20038;-90
2023/03/12 00:37:04;;;;;;;7.50;5.10;;;;;;;1.92;80.34;100964.97;4986291;28;20373;-92
2023/03/12 00:39:31;;;;;;;9.47;4.93;;;;;;;1.90;80.61;100963.44;4981213;28;20125;-91
2023/03/12 00:41:56;;;;;;;11.27;5.10;;;;;;;1.90;80.98;100960.75;4985646;28;20125;-91
2023/03/12 00:44:21;;;;;;;9.20;5.27;;;;;;;1.88;81.18;100958.25;4958041;28;20582;-83
2023/03/12 00:46:47;;;;;;;10.63;5.23;;;;;;;1.90;81.79;100955.41;4948322;28;20095;-82
2023/03/12 00:49:12;;;;;;;10.83;5.43;;;;;;;1.87;81.44;100958.41;4969796;28;20526;-83
2023/03/12 00:51:37;;;;;;;8.83;5.13;;;;;;;1.88;82.00;100958.25;4963511;28;20047;-83
2023/03/12 00:54:03;;;;;;;10.40;5.23;;;;;;;1.83;81.90;100953.34;4968619;28;20053;-83
2023/03/12 00:56:29;;;;;;;11.13;5.50;;;;;;;1.85;83.05;100948.69;4958108;28;20042;-83
2023/03/12 00:58:55;;;;;;;13.13;5.70;;;;;;;1.85;81.81;100942.53;4984738;28;20105;-83
2023/03/12 01:01:20;;;;;;;10.47;5.40;;;;;;;1.85;81.86;100940.69;4989351;28;20061;-83
2023/03/12 01:03:46;;;;;;;11.07;5.60;;;;;;;1.87;81.05;100939.69;4962607;28;20601;-83
2023/03/12 01:06:11;;;;;;;9.57;5.13;;;;;;;1.85;81.32;100937.19;4990601;28;20105;-83
2023/03/12 01:08:37;;;;;;;11.63;5.30;;;;;;;1.89;81.67;100937.69;4983954;28;20042;-83
2023/03/12 01:11:03;;;;;;;9.47;5.30;;;;;;;1.88;82.26;100931.53;4928660;28;20081;-83
2023/03/12 01:13:29;;;;;;;10.33;5.20;;;;;;;1.90;81.44;100926.84;4965613;28;20445;-83
2023/03/12 01:15:54;;;;;;;10.33;5.03;;;;;;;1.90;81.75;100918.00;4992283;28;20042;-91
2023/03/12 01:18:19;;;;;;;9.87;5.17;;;;;;;1.91;81.39;100925.03;4944405;28;20094;-91
2023/03/12 01:20:45;;;;;;;8.77;5.10;;;;;;;1.91;81.63;100927.72;4990570;28;20430;-91
2023/03/12 01:23:11;;;;;;;10.40;5.10;;;;;;;1.90;81.25;100928.69;4979823;28;20034;-91
2023/03/12 01:25:36;;;;;;;8.80;4.90;;;;;;;1.93;81.24;100929.25;4996194;28;21838;-91
2023/03/12 01:28:02;;;;;;;9.27;4.90;;;;;;;1.93;81.77;100923.03;4972568;28;20041;-91
2023/03/12 01:30:27;;;;;;;9.23;4.80;;;;;;;1.95;81.22;100921.06;4996317;28;20142;-90
2023/03/12 01:32:53;;;;;;;11.97;5.00;;;;;;;1.96;80.83;100922.72;4978341;28;20101;-90
2023/03/12 01:35:18;;;;;;;9.50;5.20;;;;;;;1.98;80.81;100923.41;4942716;28;20055;-90
2023/03/12 01:37:44;;;;;;;9.77;5.20;;;;;;;2.00;80.44;100929.47;4963083;28;20030;-91
2023/03/12 01:40:24;;;;;;;10.43;4.93;;;;;;;2.02;80.49;100922.13;4994763;28;20033;-91
2023/03/12 01:42:55;;;;;;;7.37;4.70;;;;;;;2.04;79.83;100922.81;4998665;28;20043;-90
2023/03/12 01:45:58;;;;;;;7.90;4.80;;;;;;;2.05;80.37;100916.47;4985071;28;20093;-91
2023/03/12 01:48:24;;;;;;;10.57;5.00;;;;;;;2.06;79.45;100906.63;4976167;28;20274;-90
2023/03/12 01:50:49;;;;;;;9.50;4.80;;;;;;;2.06;79.93;100894.09;4991315;28;20367;-91
2023/03/12 01:53:15;;;;;;;8.30;4.67;;;;;;;2.08;79.62;100888.59;4998396;28;20384;-91
2023/03/12 01:55:41;;;;;;;8.70;4.80;;;;;;;2.06;80.02;100887.91;4996029;28;20117;-91
2023/03/12 01:58:06;;;;;;;10.47;4.73;;;;;;;2.05;80.27;100889.72;5003333;28;20513;-91
2023/03/12 02:00:32;;;;;;;9.20;4.63;;;;;;;2.04;81.10;100882.72;4974212;28;20042;-90
2023/03/12 02:03:02;;;;;;;12.20;4.43;;;;;;;2.03;80.34;100886.38;4982559;28;20030;-91
2023/03/12 02:05:34;;;;;;;10.43;4.50;;;;;;;2.03;80.94;100881.88;5000520;28;20043;-90
2023/03/12 02:08:00;;;;;;;11.70;4.50;;;;;;;2.04;81.33;100885.41;5003338;28;20781;-91
2023/03/12 02:10:26;;;;;;;7.97;4.27;;;;;;;2.06;79.94;100887.91;4964321;28;20344;-91
2023/03/12 02:12:52;;;;;;;10.70;4.60;;;;;;;2.07;80.13;100887.75;4999460;28;20034;-91
2023/03/12 02:15:17;;;;;;;7.60;4.03;;;;;;;2.07;79.64;100876.22;4975950;28;20104;-91
2023/03/12 02:17:43;;;;;;;10.23;4.33;;;;;;;2.08;80.08;100881.41;4996551;28;20030;-91
2023/03/12 02:20:22;;;;;;;9.77;4.97;;;;;;;2.08;80.30;100868.06;4963631;28;20051;-91
2023/03/12 02:22:59;;;;;;;9.60;4.23;;;;;;;2.06;80.61;100872.72;4987953;28;20129;-91
2023/03/12 02:25:42;;;;;;;9.10;4.47;;;;;;;2.06;81.43;100866.53;4990467;28;20038;-91
2023/03/12 02:28:13;;;;;;;9.40;4.97;;;;;;;2.04;81.76;100856.00;4990504;28;22176;-91
2023/03/12 02:30:46;;;;;;;9.90;4.57;;;;;;;2.03;82.26;100855.13;4972957;28;20038;-91
2023/03/12 02:33:13;;;;;;;9.00;4.40;;;;;;;2.03;82.21;100844.44;4981162;28;20285;-91
2023/03/12 02:35:39;;;;;;;7.93;4.87;;;;;;;2.03;82.37;100849.78;4967879;28;20125;-91
2023/03/12 02:38:30;;;;;;;7.63;4.57;;;;;;;2.08;81.72;100848.50;5003778;28;20300;-91
2023/03/12 02:40:59;;;;;;;8.77;4.57;;;;;;;2.01;81.93;100843.78;4979635;28;20030;-91
2023/03/12 02:43:24;;;;;;;11.40;4.77;;;;;;;2.03;81.30;100843.63;4984418;28;20398;-90
2023/03/12 02:45:50;;;;;;;11.50;4.47;;;;;;;2.02;81.30;100842.78;4978952;28;20290;-91
2023/03/12 02:48:15;;;;;;;9.07;4.83;;;;;;;2.02;81.65;100833.91;4980913;28;20034;-91
2023/03/12 02:50:41;;;;;;;10.97;4.67;;;;;;;2.05;81.43;100846.97;4993099;28;20038;-91
2023/03/12 02:53:06;;;;;;;7.53;4.50;;;;;;;2.05;80.98;100848.81;4979995;28;20046;-91
2023/03/12 02:55:32;;;;;;;12.87;4.90;;;;;;;2.03;81.33;100841.78;4966450;28;20180;-91
2023/03/12 02:57:57;;;;;;;11.40;5.10;;;;;;;2.05;81.73;100841.63;4957354;28;20039;-90
2023/03/12 03:00:23;;;;;;;8.30;4.37;;;;;;;2.05;81.53;100836.28;4983606;28;20037;-90
2023/03/12 03:02:48;;;;;;;7.37;4.47;;;;;;;2.06;80.81;100826.44;4994904;28;20978;-90
2023/03/12 03:05:13;;;;;;;7.97;4.83;;;;;;;2.07;80.89;100817.41;4991552;28;20049;-90
2023/03/12 03:07:39;;;;;;;7.47;4.37;;;;;;;2.08;80.95;100824.44;4956221;28;20050;-83
2023/03/12 03:10:05;;;;;;;14.43;4.90;;;;;;;2.05;81.34;100820.25;4967651;28;20039;-83
2023/03/12 03:12:32;;;;;;;10.50;5.03;;;;;;;2.04;81.69;100818.59;4986650;28;20518;-83
2023/03/12 03:14:58;;;;;;;9.83;4.87;;;;;;;2.03;82.29;100819.56;4947730;28;20096;-83
2023/03/12 03:17:24;;;;;;;9.80;5.03;;;;;;;2.00;83.07;100830.59;4983302;28;20297;-83
2023/03/12 03:19:50;;;;;;;9.93;4.93;;;;;;;2.02;83.60;100823.22;4990345;28;20398;-83
2023/03/12 03:22:17;;;;;;;8.63;4.90;;;;;;;2.01;83.73;100825.06;4963641;28;20168;-82
2023/03/12 03:24:42;;;;;;;8.17;4.83;;;;;;;2.01;83.81;100834.91;4951095;28;20576;-83
2023/03/12 03:27:08;;;;;;;8.43;5.30;;;;;;;2.00;84.44;100830.59;4990276;28;20057;-83
2023/03/12 03:29:33;;;;;;;10.90;5.47;;;;;;;2.01;84.83;100827.75;4954979;28;20038;-83
2023/03/12 03:31:59;;;;;;;12.10;5.60;;;;;;;2.05;85.05;100828.25;4970131;28;20046;-83
2023/03/12 03:34:24;;;;;;;10.63;5.50;;;;;;;2.05;85.95;100820.25;4972726;28;20034;-83
2023/03/12 03:36:50;;;;;;;14.57;6.17;;;;;;;2.08;85.90;100825.28;4947709;28;20042;-83
2023/03/12 03:39:15;;;;;;;10.73;5.67;;;;;;;2.09;86.53;100826.94;4989723;28;20034;-83
2023/03/12 03:41:40;;;;;;;13.50;6.03;;;;;;;2.11;87.20;100824.13;4950108;28;20482;-83
2023/03/12 03:44:06;;;;;;;13.20;5.77;;;;;;;2.12;86.62;100832.00;4962341;28;20459;-83
2023/03/12 03:46:34;;;;;;;12.70;6.60;;;;;;;2.12;87.40;100823.97;4962130;28;20081;-83
2023/03/12 03:48:59;;;;;;;11.07;6.30;;;;;;;2.12;88.25;100829.34;4947825;28;20066;-82
2023/03/12 03:51:25;;;;;;;12.17;6.50;;;;;;;2.10;88.66;100811.78;4984331;28;20118;-83
2023/03/12 03:53:50;;;;;;;10.07;6.03;;;;;;;2.12;88.95;100815.09;4950813;28;20489;-82
2023/03/12 03:56:16;;;;;;;11.73;6.27;;;;;;;2.08;89.66;100806.59;4947634;28;20459;-83
2023/03/12 03:58:41;;;;;;;14.33;6.67;;;;;;;2.08;90.64;100797.72;4951633;28;20037;-83
2023/03/12 04:01:07;;;;;;;10.47;6.13;;;;;;;2.07;91.91;100794.22;4929276;28;20038;-83
2023/03/12 04:03:33;;;;;;;10.77;6.07;;;;;;;2.03;93.04;100782.16;4974348;28;20487;-83
2023/03/12 04:06:00;;;;;;;12.67;6.23;;;;;;;2.03;93.92;100782.97;4955015;28;20037;-83
2023/03/12 04:08:27;;;;;;;12.47;6.40;;;;;;;2.03;95.20;100780.31;4984674;28;20301;-83
2023/03/12 04:10:53;;;;;;;11.87;6.30;;;;;;;2.03;96.18;100780.31;4969547;28;20673;-83
2023/03/12 04:13:18;;;;;;;11.90;6.27;;;;;;;2.03;97.15;100777.63;4962463;28;20290;-83
2023/03/12 04:15:48;;;;;;;12.37;5.80;;;;;;;2.00;96.04;100766.44;4938958;28;20040;-83
2023/03/12 04:18:14;;;;;;;11.60;5.40;;;;;;;2.01;95.90;100765.44;4987027;28;20050;-83
2023/03/12 04:20:40;;;;;;;12.13;6.00;;;;;;;1.98;96.36;100755.88;4989283;28;20498;-83
2023/03/12 04:23:05;;;;;;;11.77;5.70;;;;;;;1.98;97.03;100750.53;4933659;28;20082;-83
2023/03/12 04:25:30;;;;;;;12.50;6.03;;;;;;;1.97;97.01;100748.03;4950606;28;20073;-83
2023/03/12 04:27:56;;;;;;;11.80;5.60;;;;;;;1.96;97.19;100747.22;4986096;28;20177;-83
2023/03/12 04:30:21;;;;;;;10.40;5.87;;;;;;;1.95;97.52;100740.19;4969193;28;20126;-82
2023/03/12 04:32:46;;;;;;;9.50;5.50;;;;;;;1.95;97.35;100728.66;4987971;28;20064;-82
2023/03/12 04:35:12;;;;;;;8.67;5.53;;;;;;;1.95;97.55;100726.00;4960622;28;20552;-82
2023/03/12 04:37:37;;;;;;;8.57;5.20;;;;;;;1.97;98.11;100718.63;4978556;28;20581;-91
2023/03/12 04:40:06;;;;;;;11.20;5.70;;;;;;;1.98;97.91;100706.97;4993932;28;20045;-91
2023/03/12 04:42:34;;;;;;;11.37;5.30;;;;;;;1.98;97.97;100702.44;4979676;28;20166;-91
2023/03/12 04:44:59;;;;;;;11.47;5.70;;;;;;;1.97;98.58;100710.63;5001460;28;20038;-92
2023/03/12 04:47:24;;;;;;;12.47;6.00;;;;;;;1.97;99.01;100711.47;4992673;28;21025;-92
2023/03/12 04:49:50;;;;;;;9.03;5.03;;;;;;;2.00;98.35;100711.16;4995724;28;20584;-90
2023/03/12 04:52:16;;;;;;;9.83;5.30;;;;;;;2.02;98.99;100719.00;4966705;28;20042;-90
2023/03/12 04:54:42;;;;;;;12.03;5.57;;;;;;;2.05;98.10;100713.34;4950200;28;20038;-91
2023/03/12 04:57:07;;;;;;;10.33;5.30;;;;;;;2.06;98.18;100703.50;4991325;28;20107;-90
2023/03/12 04:59:33;;;;;;;12.57;5.70;;;;;;;2.05;98.15;100699.97;4989090;28;20053;-83
2023/03/12 05:01:58;;;;;;;9.10;5.50;;;;;;;2.03;98.41;100704.66;4976343;28;20944;-91
2023/03/12 05:04:24;;;;;;;10.60;5.57;;;;;;;2.07;98.56;100700.66;4969554;28;20985;-91
2023/03/12 05:06:49;;;;;;;12.47;4.93;;;;;;;2.08;98.38;100705.03;4989184;28;20097;-91
2023/03/12 05:09:14;;;;;;;11.23;5.20;;;;;;;2.11;97.74;100701.16;4967832;28;20042;-91
2023/03/12 05:11:40;;;;;;;9.67;4.80;;;;;;;2.12;97.72;100698.34;4993126;28;20034;-91
2023/03/12 05:14:05;;;;;;;12.90;5.10;;;;;;;2.12;98.09;100686.81;4956978;28;20038;-91
2023/03/12 05:16:30;;;;;;;9.50;5.20;;;;;;;2.13;98.08;100681.28;4964160;28;20494;-91
2023/03/12 05:18:56;;;;;;;8.87;4.90;;;;;;;2.15;97.90;100676.66;5001369;28;20049;-91
2023/03/12 05:21:21;;;;;;;8.33;4.50;;;;;;;2.15;97.99;100667.81;4998787;28;20474;-90
2023/03/12 05:23:47;;;;;;;10.67;4.63;;;;;;;2.21;96.92;100666.31;4998361;28;20049;-91
2023/03/12 05:26:30;;;;;;;7.73;4.53;;;;;;;2.19;97.96;100661.94;4981215;28;20112;-91
2023/03/12 05:28:57;;;;;;;12.73;5.20;;;;;;;2.28;97.54;100670.00;4997165;28;20077;-91
2023/03/12 05:31:22;;;;;;;13.93;5.43;;;;;;;2.25;98.33;100665.00;4966239;28;20348;-83
2023/03/12 05:33:48;;;;;;;9.97;4.90;;;;;;;2.25;98.68;100662.31;4966939;28;20289;-90
2023/03/12 05:36:14;;;;;;;11.00;5.20;;;;;;;2.29;100.00;100650.28;4998755;28;20038;-89
2023/03/12 05:38:41;;;;;;;10.90;5.03;;;;;;;2.28;100.00;100654.78;5000019;28;20030;-90
2023/03/12 05:41:08;;;;;;;10.80;5.30;;;;;;;2.25;100.00;100656.97;4971860;28;20039;-89
2023/03/12 05:43:34;;;;;;;11.60;5.33;;;;;;;2.30;100.00;100662.63;5002366;28;20296;-90
2023/03/12 05:46:04;;;;;;;11.43;5.57;;;;;;;2.26;100.00;100661.28;4952579;28;20038;-90
2023/03/12 05:48:30;;;;;;;10.87;5.50;;;;;;;2.19;100.00;100667.31;5004748;28;20030;-91
2023/03/12 05:50:56;;;;;;;11.30;5.50;;;;;;;2.27;100.00;100665.66;4998904;28;20392;-91
2023/03/12 05:53:22;;;;;;;12.13;5.87;;;;;;;2.27;100.00;100652.28;4980158;28;20081;-90
2023/03/12 05:55:48;;;;;;;15.77;6.63;;;;;;;2.31;100.00;100658.97;4995667;28;20521;-90
2023/03/12 05:58:14;;;;;;;12.33;6.00;;;;;;;2.24;100.00;100657.97;4998635;28;20289;-90
2023/03/12 06:00:40;;;;;;;14.90;6.20;;;;;;;2.25;100.00;100662.31;4998639;28;20031;-91
2023/03/12 06:03:06;;;;;;;16.53;6.67;;;;;;;2.22;100.00;100659.94;4999578;28;20530;-91
2023/03/12 06:05:34;;;;;;;15.17;6.87;;;;;;;2.28;100.00;100656.63;4978858;28;20592;-90
2023/03/12 06:08:00;;;;;;;12.10;6.50;;;;;;;2.23;100.00;100656.28;5001692;28;20528;-91
2023/03/12 06:10:26;;;;;;;15.13;6.00;;;;;;;2.15;100.00;100654.44;4987067;28;20308;-91
2023/03/12 06:12:51;;;;;;;10.50;5.90;;;;;;;2.12;100.00;100647.56;4998249;28;20418;-90
2023/03/12 06:15:17;;;;;;;11.13;6.30;;;;;;;2.15;100.00;100655.25;4969618;28;20053;-91
2023/03/12 06:17:44;;;;;;;15.90;6.70;;;;;;;2.12;100.00;100660.06;4988607;28;20100;-91
2023/03/12 06:20:09;;;;;;;12.77;6.97;;;;;;;2.17;100.00;100660.44;4981692;28;20313;-91
2023/03/12 06:22:35;;;;;;;14.40;6.67;;;;;;;2.18;100.00;100652.25;4951955;28;20046;-91
2023/03/12 06:25:00;;;;;;;12.77;6.50;;;;;;;2.21;100.00;100659.13;4979580;28;20529;-91
2023/03/12 06:27:26;;;;;;;12.90;6.90;;;;;;;2.22;100.00;100673.31;4986579;28;20397;-89
2023/03/12 06:29:51;;;;;;;10.93;6.10;;;;;;;2.25;100.00;100662.31;4996147;28;20129;-89
2023/03/12 06:32:17;;;;;;;15.70;6.50;;;;;;;2.20;100.00;100662.78;4995837;28;20436;-91
2023/03/12 06:34:43;;;;;;;11.80;7.00;;;;;;;2.23;100.00;100653.59;4985033;28;20110;-91
2023/03/12 06:37:08;;;;;;;16.10;7.73;;;;;;;2.24;100.00;100655.28;4978004;28;20494;-91
2023/03/12 06:39:34;;;;;;;16.30;7.97;;;;;;;2.22;100.00;100650.09;4992975;28;20589;-91
2023/03/12 06:41:59;;;;;;;15.57;7.90;;;;;;;2.26;100.00;100650.59;4962047;28;20576;-91
2023/03/12 06:44:25;;;;;;;15.00;7.90;;;;;;;2.26;100.00;100650.59;4968432;28;20029;-90
2023/03/12 06:46:51;;;;;;;17.23;8.83;;;;;;;2.25;100.00;100643.59;4998333;28;20046;-91
2023/03/12 06:49:16;;;;;;;18.57;9.23;;;;;;;2.24;100.00;100641.91;4948309;28;20156;-82
2023/03/12 06:51:42;;;;;;;16.23;9.57;;;;;;;2.23;100.00;100640.25;4943263;28;20046;-82
2023/03/12 06:54:07;;;;;;;19.37;10.07;;;;;;;2.22;100.00;100633.22;4961541;28;20995;-82
2023/03/12 06:56:32;;;;;;;16.43;9.70;;;;;;;2.27;100.00;100636.25;4942348;28;20054;-83
2023/03/12 06:58:58;;;;;;;15.17;9.93;;;;;;;2.22;100.00;100630.53;4978255;28;20068;-82
2023/03/12 07:01:23;;;;;;;19.57;11.70;;;;;;;2.19;100.00;100629.88;4961427;28;20045;-83
2023/03/12 07:03:49;;;;;;;23.03;12.17;;;;;;;2.19;100.00;100621.84;4946921;28;20758;-83
2023/03/12 07:06:17;;;;;;;20.77;12.00;;;;;;;2.19;100.00;100627.22;4979243;28;20080;-83
2023/03/12 07:08:43;;;;;;;21.97;12.83;;;;;;;2.21;100.00;100620.88;4978900;28;20950;-82
2023/03/12 07:11:09;;;;;;;19.53;12.30;;;;;;;2.24;100.00;100617.88;4986674;28;20049;-82
2023/03/12 07:13:34;;;;;;;20.97;12.90;;;;;;;2.28;100.00;100621.88;4990677;28;20300;-83
2023/03/12 07:16:00;;;;;;;19.10;12.00;;;;;;;2.29;100.00;100619.03;4968645;28;20497;-89
2023/03/12 07:18:26;;;;;;;19.03;13.07;;;;;;;2.26;100.00;100621.19;4981500;28;20057;-90
2023/03/12 07:20:52;;;;;;;22.00;13.20;;;;;;;2.29;100.00;100621.72;4991534;28;20128;-82
2023/03/12 07:23:17;;;;;;;21.53;12.83;;;;;;;2.30;100.00;100625.22;4961123;28;20501;-83
2023/03/12 07:25:43;;;;;;;19.70;12.27;;;;;;;2.35;100.00;100612.19;4934308;28;20295;-83
2023/03/12 07:28:10;;;;;;;22.30;14.10;;;;;;;2.37;100.00;100615.56;4983199;28;20042;-83
2023/03/12 07:30:36;;;;;;;22.33;13.57;;;;;;;2.40;100.00;100630.44;4961460;28;20058;-83
2023/03/12 07:33:03;;;;;;;15.87;11.70;;;;;;;2.44;100.00;100637.13;4946652;28;20383;-82
2023/03/12 07:35:29;;;;;;;17.57;12.23;;;;;;;2.36;100.00;100617.38;4969250;28;20038;-83
2023/03/12 07:37:54;;;;;;;22.00;14.13;;;;;;;2.42;100.00;100634.63;4944439;28;20034;-82
2023/03/12 07:40:20;;;;;;;21.27;13.60;;;;;;;2.41;100.00;100616.03;4982614;28;20068;-82
2023/03/12 07:42:45;;;;;;;24.20;15.63;;;;;;;2.43;100.00;100627.44;4968039;28;20120;-83
2023/03/12 07:45:11;;;;;;;21.10;15.83;;;;;;;2.43;100.00;100625.59;4976272;28;20081;-83
2023/03/12 07:47:36;;;;;;;23.37;15.80;;;;;;;2.44;100.00;100619.25;4959993;28;20046;-83
2023/03/12 07:50:02;;;;;;;22.43;15.43;;;;;;;2.47;100.00;100626.94;4988754;28;20085;-83
2023/03/12 07:52:27;;;;;;;20.80;15.20;;;;;;;2.43;100.00;100622.91;4954553;28;20096;-83
2023/03/12 07:54:55;;;;;;;20.07;15.10;;;;;;;2.42;100.00;100623.94;4947929;28;20038;-83
2023/03/12 07:57:21;;;;;;;20.23;15.30;;;;;;;2.44;100.00;100629.13;4963469;28;20034;-83
2023/03/12 07:59:46;;;;;;;22.77;14.80;;;;;;;2.50;100.00;100626.63;4971628;28;20132;-83
2023/03/12 08:02:12;;;;;;;23.20;15.97;;;;;;;2.44;100.00;100635.28;4938326;28;20046;-83
2023/03/12 08:04:37;;;;;;;23.20;16.10;;;;;;;2.47;100.00;100631.44;4986324;28;20038;-83
2023/03/12 08:07:03;;;;;;;21.03;15.77;;;;;;;2.50;100.00;100631.97;4963754;28;20050;-90
2023/03/12 08:09:29;;;;;;;21.03;15.97;;;;;;;2.52;100.00;100624.59;4999834;28;20034;-90
2023/03/12 08:11:54;;;;;;;20.60;15.23;;;;;;;2.60;100.00;100630.97;4997199;28;20410;-90
2023/03/12 08:14:20;;;;;;;22.73;16.63;;;;;;;2.60;100.00;100630.97;4987991;28;20113;-90
2023/03/12 08:16:45;;;;;;;22.57;16.93;;;;;;;2.68;100.00;100626.47;4998065;28;20041;-90
2023/03/12 08:19:10;;;;;;;23.43;17.47;;;;;;;2.69;100.00;100620.13;4996027;28;20048;-90
2023/03/12 08:21:36;;;;;;;22.20;17.73;;;;;;;2.77;100.00;100623.81;4994469;28;20050;-90
2023/03/12 08:24:02;;;;;;;23.83;19.83;;;;;;;2.80;100.00;100621.66;4983751;28;20042;-90
2023/03/12 08:26:27;;;;;;;24.20;20.90;;;;;;;2.85;100.00;100621.97;4997082;28;20067;-90
2023/03/12 08:28:53;;;;;;;25.03;19.90;;;;;;;2.94;100.00;100625.50;4953967;28;20074;-90
2023/03/12 08:31:18;;;;;;;25.10;20.90;;;;;;;3.00;100.00;100632.00;4995554;28;20058;-90
2023/03/12 08:33:45;;;;;;;27.63;22.17;;;;;;;3.02;100.00;100630.84;4962235;28;20049;-83
2023/03/12 08:36:11;;;;;;;23.60;20.23;;;;;;;3.08;100.00;100634.69;4945824;28;21708;-83
2023/03/12 08:38:37;;;;;;;26.80;21.67;;;;;;;3.15;100.00;100626.81;4987694;28;20046;-83
2023/03/12 08:41:03;;;;;;;41.87;22.93;;;;;;;3.20;100.00;100646.72;4988742;28;20108;-90
2023/03/12 08:43:28;;;;;;;24.07;21.10;;;;;;;3.25;100.00;100640.03;4968588;28;20038;-90
2023/03/12 08:45:55;;;;;;;34.53;22.50;;;;;;;3.29;100.00;100641.34;4981903;28;20073;-90
2023/03/12 08:48:20;;;;;;;31.10;20.20;;;;;;;3.36;100.00;100642.38;4972508;28;20049;-90
2023/03/12 08:50:46;;;;;;;23.07;19.07;;;;;;;3.40;100.00;100650.88;4968676;28;20046;-90
2023/03/12 08:53:11;;;;;;;26.27;18.87;;;;;;;3.41;100.00;100653.38;4946016;28;20596;-90
2023/03/12 08:55:36;;;;;;;22.73;19.37;;;;;;;3.47;100.00;100650.03;4973361;28;20073;-90
2023/03/12 08:58:02;;;;;;;23.67;19.47;;;;;;;3.52;100.00;100650.38;4992865;28;20134;-90
2023/03/12 09:00:28;;;;;;;22.13;19.37;;;;;;;3.54;100.00;100656.38;4995791;28;20034;-90
2023/03/12 09:02:56;;;;;;;21.87;18.87;;;;;;;3.60;100.00;100662.06;4968370;28;20561;-83
2023/03/12 09:05:22;;;;;;;23.17;19.30;;;;;;;3.63;100.00;100661.72;4980744;28;20494;-83
2023/03/12 09:07:48;;;;;;;24.93;19.57;;;;;;;3.73;100.00;100654.34;4968903;28;20127;-83
2023/03/12 09:10:14;;;;;;;23.30;19.57;;;;;;;3.80;100.00;100657.19;4969457;28;20042;-83
2023/03/12 09:12:39;;;;;;;29.67;22.07;;;;;;;3.94;100.00;100659.13;4959256;28;20045;-83
2023/03/12 09:15:06;;;;;;;26.07;22.83;;;;;;;4.07;100.00;100645.19;4937569;28;20420;-83
2023/03/12 09:17:31;;;;;;;29.00;24.77;;;;;;;4.19;100.00;100651.84;4986579;28;20042;-91
2023/03/12 09:19:57;;;;;;;29.83;24.23;;;;;;;4.27;100.00;100650.97;4956686;28;20456;-91
2023/03/12 09:22:22;;;;;;;33.60;25.30;;;;;;;4.38;100.00;100647.06;4989192;28;20054;-90
2023/03/12 09:24:47;;;;;;;32.00;26.20;;;;;;;4.46;100.00;100654.19;4996948;28;20052;-90
2023/03/12 09:27:13;;;;;;;33.80;27.43;;;;;;;4.56;100.00;100644.09;4961150;28;20038;-90
2023/03/12 09:29:38;;;;;;;31.60;26.10;;;;;;;4.66;100.00;100639.31;4999056;28;20048;-91
2023/03/12 09:32:04;;;;;;;33.67;26.93;;;;;;;4.74;100.00;100641.13;4994719;28;20070;-91
2023/03/12 09:34:29;;;;;;;34.10;27.40;;;;;;;4.83;100.00;100637.38;5001350;28;20037;-90
2023/03/12 09:36:55;;;;;;;37.40;29.77;;;;;;;4.98;100.00;100641.97;4963171;28;20498;-91
2023/03/12 09:39:21;;;;;;;41.10;32.53;;;;;;;5.10;100.00;100643.22;4940824;28;20463;-90
2023/03/12 09:41:47;;;;;;;42.87;33.93;;;;;;;5.23;100.00;100646.09;4980028;28;20434;-90
2023/03/12 09:44:31;;;;;;;40.97;33.63;;;;;;;5.36;100.00;100644.66;4970840;28;20034;-83
2023/03/12 09:47:06;;;;;;;42.67;34.80;;;;;;;5.51;100.00;100653.56;4976320;28;20056;-83
2023/03/12 09:49:45;;;;;;;41.60;34.90;;;;;;;5.66;100.00;100667.03;4990515;28;20042;-91
2023/03/12 09:52:29;;;;;;;42.87;34.77;;;;;;;5.81;100.00;100656.28;4994837;28;20041;-92
2023/03/12 09:55:19;;;;;;;40.40;35.35;;;;;;;5.94;100.00;100668.25;4967300;28;20047;-91
2023/03/12 09:57:46;;;;;;;41.63;35.50;;;;;;;6.09;100.00;100671.78;4994958;28;20086;-91
2023/03/12 10:00:25;;;;;;;40.07;35.37;;;;;;;6.23;100.00;100672.81;4992841;28;20483;-92
2023/03/12 10:03:05;;;;;;;38.67;34.47;;;;;;;6.31;100.00;100667.31;4988113;28;20042;-91
2023/03/12 10:05:35;;;;;;;37.70;33.43;;;;;;;6.40;100.00;100674.25;5002596;28;20512;-92
2023/03/12 10:08:09;;;;;;;37.40;32.90;;;;;;;6.53;100.00;100672.75;4991683;28;20134;-83
2023/03/12 10:10:52;;;;;;;37.67;32.90;;;;;;;6.65;100.00;100670.38;4987871;28;20070;-83
2023/03/12 10:13:33;;;;;;;34.60;30.70;;;;;;;6.69;100.00;100675.22;4985367;28;20038;-84
2023/03/12 10:16:37;;;;;;;34.83;31.13;;;;;;;6.82;100.00;100682.59;4984666;28;20048;-83
2023/03/12 10:19:19;;;;;;;32.00;28.60;;;;;;;6.93;100.00;100684.78;4979170;28;20065;-84
2023/03/12 10:21:52;;;;;;;32.50;29.00;;;;;;;7.06;100.00;100672.47;4967556;28;20124;-84
2023/03/12 10:24:17;;;;;;;32.37;28.80;;;;;;;7.08;100.00;100675.81;4990780;28;20030;-85
2023/03/12 10:26:49;;;;;;;31.57;28.17;;;;;;;7.21;100.00;100678.63;4991911;28;20042;-84
2023/03/12 10:29:19;;;;;;;31.97;27.97;;;;;;;7.29;100.00;100672.28;4990092;28;20062;-84
2023/03/12 10:31:57;;;;;;;31.60;26.60;;;;;;;7.36;100.00;100667.75;4965288;28;20561;-84
2023/03/12 10:34:41;;;;;;;29.93;26.73;;;;;;;7.44;100.00;100674.88;4990339;28;20030;-84
2023/03/12 10:37:41;;;;;;;33.13;27.10;;;;;;;7.48;100.00;100680.69;4981366;28;20044;-84
2023/03/12 10:40:13;;;;;;;31.03;26.37;;;;;;;7.50;100.00;100676.78;4989373;28;20046;-94
2023/03/12 10:42:39;;;;;;;30.63;26.43;;;;;;;7.57;100.00;100676.84;4988346;28;20042;-84
2023/03/12 10:45:07;;;;;;;31.00;25.47;;;;;;;7.65;100.00;100670.47;4987898;28;20093;-84
2023/03/12 10:47:41;;;;;;;29.47;25.70;;;;;;;7.78;100.00;100665.97;4988693;28;20531;-84
2023/03/12 10:50:28;;;;;;;31.63;23.35;;;;;;;7.91;100.00;100662.56;4979273;28;21216;-81
2023/03/12 10:53:23;;;;;;;29.03;22.87;;;;;;;7.89;100.00;100666.47;4990394;28;20042;-82
2023/03/12 10:56:08;;;;;;;31.35;23.58;;;;;;;7.91;100.00;100665.25;4989831;28;20054;-81
2023/03/12 10:58:40;;;;;;;29.47;22.53;;;;;;;7.96;100.00;100666.53;4987023;28;20031;-81
2023/03/12 11:01:25;;;;;;;29.53;22.67;;;;;;;8.00;100.00;100668.59;4990024;28;20069;-81
2023/03/12 11:03:51;;;;;;;;;;;;;;;8.10;100.00;100679.88;4987875;28;20042;-81
2023/03/12 11:06:23;;;;;;;31.50;22.50;;;;;;;8.04;100.00;100683.38;4973401;28;19925;-82
2023/03/12 11:09:21;;;;;;;28.20;22.40;;;;;;;8.11;100.00;100676.13;4989524;28;20038;-81
2023/03/12 11:11:49;;;;;;;32.03;23.67;;;;;;;8.14;100.00;100674.06;4917109;28;20117;-82
2023/03/12 11:14:21;;;;;;;29.63;22.73;;;;;;;8.18;100.00;100681.56;4980591;28;20034;-81
2023/03/12 11:16:47;;;;;;;32.07;22.47;;;;;;;8.16;100.00;100682.78;4982963;28;20469;-81
2023/03/12 11:19:25;;;;;;;30.43;22.27;;;;;;;8.15;100.00;100687.38;4965114;28;20030;-81
2023/03/12 11:22:02;;;;;;;33.50;22.83;;;;;;;8.15;100.00;100684.66;4973378;28;20600;-81